sensor_id;sensor_type;location;lat;lon;timestamp;pressure;altitude;pressure_sealevel;temperature;humidity
4133;BME280;2080;51.038;7.008;2024-02-21T00:00:23;46164.00;;;-142.53;81.54
4133;BME280;2080;51.038;7.008;2024-02-21T00:02:50;46169.78;;;-142.53;83.05
4133;BME280;2080;51.038;7.008;2024-02-21T00:05:18;46135.13;;;-142.53;78.27
4133;BME280;2080;51.038;7.008;2024-02-21T00:07:46;46167.84;;;-142.53;81.00
4133;BME280;2080;51.038;7.008;2024-02-21T00:10:11;46154.38;;;-142.53;78.85
4133;BME280;2080;51.038;7.008;2024-02-21T00:12:37;46146.66;;;-142.53;78.99
4133;BME280;2080;51.038;7.008;2024-02-21T00:15:05;46169.78;;;-142.53;80.23
4133;BME280;2080;51.038;7.008;2024-02-21T00:17:34;46142.81;;;-142.53;80.10
4133;BME280;2080;51.038;7.008;2024-02-21T00:19:59;46162.06;;;-142.53;80.15
4133;BME280;2080;51.038;7.008;2024-02-21T00:22:25;46146.66;;;-142.53;79.71
4133;BME280;2080;51.038;7.008;2024-02-21T00:24:54;46154.38;;;-142.53;80.66
4133;BME280;2080;51.038;7.008;2024-02-21T00:27:19;46150.53;;;-142.53;78.40
4133;BME280;2080;51.038;7.008;2024-02-21T00:29:45;46146.66;;;-142.53;81.05
4133;BME280;2080;51.038;7.008;2024-02-21T00:32:10;46189.03;;;-142.53;83.32
4133;BME280;2080;51.038;7.008;2024-02-21T00:34:38;46162.06;;;-142.53;81.54
4133;BME280;2080;51.038;7.008;2024-02-21T00:37:07;46150.53;;;-142.53;81.21
4133;BME280;2080;51.038;7.008;2024-02-21T00:39:32;46160.16;;;-142.53;83.31
4133;BME280;2080;51.038;7.008;2024-02-21T00:41:58;46254.47;;;-142.53;83.83
4133;BME280;2080;51.038;7.008;2024-02-21T00:44:23;46187.09;;;-142.53;85.42
4133;BME280;2080;51.038;7.008;2024-02-21T00:46:48;46181.31;;;-142.53;85.55
4133;BME280;2080;51.038;7.008;2024-02-21T00:49:19;46189.03;;;-142.53;85.81
4133;BME280;2080;51.038;7.008;2024-02-21T00:51:47;46177.47;;;-142.53;84.84
4133;BME280;2080;51.038;7.008;2024-02-21T00:54:12;46189.03;;;-142.53;85.12
4133;BME280;2080;51.038;7.008;2024-02-21T00:56:38;46158.22;;;-142.53;84.23
4133;BME280;2080;51.038;7.008;2024-02-21T00:59:03;46304.53;;;-142.53;88.53
4133;BME280;2080;51.038;7.008;2024-02-21T01:01:28;46165.91;;;-142.53;84.81
4133;BME280;2080;51.038;7.008;2024-02-21T01:03:54;46158.22;;;-142.53;83.73
4133;BME280;2080;51.038;7.008;2024-02-21T01:06:19;46181.31;;;-142.53;83.70
4133;BME280;2080;51.038;7.008;2024-02-21T01:08:48;46175.53;;;-142.53;84.09
4133;BME280;2080;51.038;7.008;2024-02-21T01:11:18;46185.16;;;-142.53;84.97
4133;BME280;2080;51.038;7.008;2024-02-21T01:13:44;46343.03;;;-142.53;88.83
4133;BME280;2080;51.038;7.008;2024-02-21T01:16:10;46212.13;;;-142.53;87.98
4133;BME280;2080;51.038;7.008;2024-02-21T01:18:40;46183.25;;;-142.53;83.85
4133;BME280;2080;51.038;7.008;2024-02-21T01:21:07;46212.13;;;-142.53;86.36
4133;BME280;2080;51.038;7.008;2024-02-21T01:23:33;46181.31;;;-142.53;85.90
4133;BME280;2080;51.038;7.008;2024-02-21T01:25:59;46119.72;;;-142.53;85.15
4133;BME280;2080;51.038;7.008;2024-02-21T01:28:24;46185.16;;;-142.53;84.93
4133;BME280;2080;51.038;7.008;2024-02-21T01:30:52;46204.41;;;-142.53;85.45
4133;BME280;2080;51.038;7.008;2024-02-21T01:33:17;46283.34;;;-142.53;84.88
4133;BME280;2080;51.038;7.008;2024-02-21T01:35:46;46177.47;;;-142.53;84.00
4133;BME280;2080;51.038;7.008;2024-02-21T01:38:13;46212.13;;;-142.53;86.29
4133;BME280;2080;51.038;7.008;2024-02-21T01:40:38;46189.03;;;-142.53;86.41
4133;BME280;2080;51.038;7.008;2024-02-21T01:43:18;46181.31;;;-142.53;85.39
4133;BME280;2080;51.038;7.008;2024-02-21T01:45:48;46196.72;;;-142.53;82.28
4133;BME280;2080;51.038;7.008;2024-02-21T01:48:14;46185.16;;;-142.53;85.09
4133;BME280;2080;51.038;7.008;2024-02-21T01:50:44;46173.63;;;-142.53;84.33
4133;BME280;2080;51.038;7.008;2024-02-21T01:53:13;46208.28;;;-142.53;84.94
4133;BME280;2080;51.038;7.008;2024-02-21T01:55:45;46189.03;;;-142.53;85.06
4133;BME280;2080;51.038;7.008;2024-02-21T01:58:14;46189.03;;;-142.53;83.72
4133;BME280;2080;51.038;7.008;2024-02-21T02:00:43;46158.22;;;-142.53;84.48
4133;BME280;2080;51.038;7.008;2024-02-21T02:03:10;46189.03;;;-142.53;83.66
4133;BME280;2080;51.038;7.008;2024-02-21T02:05:45;46185.16;;;-142.53;86.07
4133;BME280;2080;51.038;7.008;2024-02-21T02:08:21;46196.72;;;-142.53;84.52
4133;BME280;2080;51.038;7.008;2024-02-21T02:10:52;46200.56;;;-142.53;83.61
4133;BME280;2080;51.038;7.008;2024-02-21T02:13:17;46171.69;;;-142.53;83.36
4133;BME280;2080;51.038;7.008;2024-02-21T02:15:47;46202.50;;;-142.53;85.05
4133;BME280;2080;51.038;7.008;2024-02-21T02:18:16;46189.03;;;-142.53;84.47
4133;BME280;2080;51.038;7.008;2024-02-21T02:20:43;46162.06;;;-142.53;82.35
4133;BME280;2080;51.038;7.008;2024-02-21T02:23:10;46204.41;;;-142.53;86.04
4133;BME280;2080;51.038;7.008;2024-02-21T02:25:36;46189.03;;;-142.53;83.31
4133;BME280;2080;51.038;7.008;2024-02-21T02:28:06;46181.31;;;-142.53;84.39
4133;BME280;2080;51.038;7.008;2024-02-21T02:30:32;46162.06;;;-142.53;83.35
4133;BME280;2080;51.038;7.008;2024-02-21T02:32:59;46158.22;;;-142.53;82.50
4133;BME280;2080;51.038;7.008;2024-02-21T02:35:24;46189.03;;;-142.53;86.77
4133;BME280;2080;51.038;7.008;2024-02-21T02:37:50;46171.69;;;-142.53;83.50
4133;BME280;2080;51.038;7.008;2024-02-21T02:40:19;46160.16;;;-142.53;82.66
4133;BME280;2080;51.038;7.008;2024-02-21T02:42:44;46212.13;;;-142.53;86.85
4133;BME280;2080;51.038;7.008;2024-02-21T02:45:10;46169.78;;;-142.53;82.91
4133;BME280;2080;51.038;7.008;2024-02-21T02:47:41;46158.22;;;-142.53;83.54
4133;BME280;2080;51.038;7.008;2024-02-21T02:50:07;46200.56;;;-142.53;86.33
4133;BME280;2080;51.038;7.008;2024-02-21T02:52:33;46185.16;;;-142.53;85.42
4133;BME280;2080;51.038;7.008;2024-02-21T02:55:01;46200.56;;;-142.53;86.05
4133;BME280;2080;51.038;7.008;2024-02-21T02:57:27;46165.91;;;-142.53;82.66
4133;BME280;2080;51.038;7.008;2024-02-21T02:59:52;46142.81;;;-142.53;86.01
4133;BME280;2080;51.038;7.008;2024-02-21T03:02:18;46156.28;;;-142.53;83.67
4133;BME280;2080;51.038;7.008;2024-02-21T03:04:43;46142.81;;;-142.53;83.00
4133;BME280;2080;51.038;7.008;2024-02-21T03:07:09;46164.00;;;-142.53;84.71
4133;BME280;2080;51.038;7.008;2024-02-21T03:09:36;46171.69;;;-142.53;82.74
4133;BME280;2080;51.038;7.008;2024-02-21T03:12:06;46121.66;;;-142.53;81.48
4133;BME280;2080;51.038;7.008;2024-02-21T03:14:34;46183.25;;;-142.53;81.76
4133;BME280;2080;51.038;7.008;2024-02-21T03:17:02;46162.06;;;-142.53;82.15
4133;BME280;2080;51.038;7.008;2024-02-21T03:19:28;46138.97;;;-142.53;80.82
4133;BME280;2080;51.038;7.008;2024-02-21T03:21:56;46119.72;;;-142.53;80.34
4133;BME280;2080;51.038;7.008;2024-02-21T03:24:21;46154.38;;;-142.53;80.12
4133;BME280;2080;51.038;7.008;2024-02-21T03:26:47;46148.59;;;-142.53;80.51
4133;BME280;2080;51.038;7.008;2024-02-21T03:29:15;46096.63;;;-142.53;80.42
4133;BME280;2080;51.038;7.008;2024-02-21T03:31:41;46115.88;;;-142.53;81.09
4133;BME280;2080;51.038;7.008;2024-02-21T03:34:07;46146.66;;;-142.53;80.73
4133;BME280;2080;51.038;7.008;2024-02-21T03:36:32;46150.53;;;-142.53;81.18
4133;BME280;2080;51.038;7.008;2024-02-21T03:38:58;46185.16;;;-142.53;80.92
4133;BME280;2080;51.038;7.008;2024-02-21T03:41:23;46125.50;;;-142.53;82.81
4133;BME280;2080;51.038;7.008;2024-02-21T03:43:49;46165.91;;;-142.53;82.58
4133;BME280;2080;51.038;7.008;2024-02-21T03:46:17;46154.38;;;-142.53;82.82
4133;BME280;2080;51.038;7.008;2024-02-21T03:48:45;46162.06;;;-142.53;83.88
4133;BME280;2080;51.038;7.008;2024-02-21T03:51:13;46150.53;;;-142.53;84.22
4133;BME280;2080;51.038;7.008;2024-02-21T03:53:40;46154.38;;;-142.53;84.07
4133;BME280;2080;51.038;7.008;2024-02-21T03:56:08;46146.66;;;-142.53;86.82
4133;BME280;2080;51.038;7.008;2024-02-21T03:58:33;46177.47;;;-142.53;85.93
4133;BME280;2080;51.038;7.008;2024-02-21T04:01:04;46173.63;;;-142.53;84.76
4133;BME280;2080;51.038;7.008;2024-02-21T04:03:33;46192.88;;;-142.53;86.48
4133;BME280;2080;51.038;7.008;2024-02-21T04:05:58;46187.09;;;-142.53;84.73
4133;BME280;2080;51.038;7.008;2024-02-21T04:08:26;46138.97;;;-142.53;85.29
4133;BME280;2080;51.038;7.008;2024-02-21T04:10:53;46150.53;;;-142.53;83.04
4133;BME280;2080;51.038;7.008;2024-02-21T04:13:19;46164.00;;;-142.53;81.71
4133;BME280;2080;51.038;7.008;2024-02-21T04:15:44;46162.06;;;-142.53;82.26
4133;BME280;2080;51.038;7.008;2024-02-21T04:18:10;46142.81;;;-142.53;82.65
4133;BME280;2080;51.038;7.008;2024-02-21T04:20:37;46158.22;;;-142.53;82.65
4133;BME280;2080;51.038;7.008;2024-02-21T04:23:05;46190.94;;;-142.53;83.92
4133;BME280;2080;51.038;7.008;2024-02-21T04:25:30;46169.78;;;-142.53;83.69
4133;BME280;2080;51.038;7.008;2024-02-21T04:27:58;46152.44;;;-142.53;83.65
4133;BME280;2080;51.038;7.008;2024-02-21T04:30:26;46146.66;;;-142.53;82.55
4133;BME280;2080;51.038;7.008;2024-02-21T04:32:54;46196.72;;;-142.53;82.60
4133;BME280;2080;51.038;7.008;2024-02-21T04:35:19;46156.28;;;-142.53;83.68
4133;BME280;2080;51.038;7.008;2024-02-21T04:37:45;46150.53;;;-142.53;82.09
4133;BME280;2080;51.038;7.008;2024-02-21T04:40:10;46158.22;;;-142.53;81.11
4133;BME280;2080;51.038;7.008;2024-02-21T04:42:36;46142.81;;;-142.53;80.74
4133;BME280;2080;51.038;7.008;2024-02-21T04:45:01;46169.78;;;-142.53;81.19
4133;BME280;2080;51.038;7.008;2024-02-21T04:47:27;46156.28;;;-142.53;82.66
4133;BME280;2080;51.038;7.008;2024-02-21T04:49:53;46154.38;;;-142.53;82.31
4133;BME280;2080;51.038;7.008;2024-02-21T04:52:19;46169.78;;;-142.53;82.74
4133;BME280;2080;51.038;7.008;2024-02-21T04:54:48;46142.81;;;-142.53;81.48
4133;BME280;2080;51.038;7.008;2024-02-21T04:57:14;46162.06;;;-142.53;82.69
4133;BME280;2080;51.038;7.008;2024-02-21T04:59:46;46162.06;;;-142.53;82.02
4133;BME280;2080;51.038;7.008;2024-02-21T05:02:19;46173.63;;;-142.53;81.89
4133;BME280;2080;51.038;7.008;2024-02-21T05:04:50;46158.22;;;-142.53;83.09
4133;BME280;2080;51.038;7.008;2024-02-21T05:07:16;46177.47;;;-142.53;83.34
4133;BME280;2080;51.038;7.008;2024-02-21T05:09:46;46456.63;;;-142.53;83.93
4133;BME280;2080;51.038;7.008;2024-02-21T05:12:12;46179.41;;;-142.53;83.09
4133;BME280;2080;51.038;7.008;2024-02-21T05:14:40;46179.41;;;-142.53;83.75
4133;BME280;2080;51.038;7.008;2024-02-21T05:17:05;46173.63;;;-142.53;81.92
4133;BME280;2080;51.038;7.008;2024-02-21T05:19:30;46177.47;;;-142.53;85.70
4133;BME280;2080;51.038;7.008;2024-02-21T05:22:01;46152.44;;;-142.53;83.96
4133;BME280;2080;51.038;7.008;2024-02-21T05:24:28;46154.38;;;-142.53;84.71
4133;BME280;2080;51.038;7.008;2024-02-21T05:26:58;46162.06;;;-142.53;83.89
4133;BME280;2080;51.038;7.008;2024-02-21T05:29:26;46189.03;;;-142.53;83.78
4133;BME280;2080;51.038;7.008;2024-02-21T05:34:17;46131.28;;;-142.53;84.63
4133;BME280;2080;51.038;7.008;2024-02-21T05:36:43;46177.47;;;-142.53;84.38
4133;BME280;2080;51.038;7.008;2024-02-21T05:39:11;46158.22;;;-142.53;84.38
4133;BME280;2080;51.038;7.008;2024-02-21T05:41:36;46165.91;;;-142.53;85.44
4133;BME280;2080;51.038;7.008;2024-02-21T05:44:10;46192.88;;;-142.53;84.27
4133;BME280;2080;51.038;7.008;2024-02-21T05:46:35;46177.47;;;-142.53;84.60
4133;BME280;2080;51.038;7.008;2024-02-21T05:49:01;46185.16;;;-142.53;85.31
4133;BME280;2080;51.038;7.008;2024-02-21T05:51:31;46131.28;;;-142.53;83.83
4133;BME280;2080;51.038;7.008;2024-02-21T05:53:59;46142.81;;;-142.53;83.34
4133;BME280;2080;51.038;7.008;2024-02-21T05:56:25;46192.88;;;-142.53;85.02
4133;BME280;2080;51.038;7.008;2024-02-21T05:58:53;46212.13;;;-142.53;85.04
4133;BME280;2080;51.038;7.008;2024-02-21T06:01:19;46198.66;;;-142.53;84.23
4133;BME280;2080;51.038;7.008;2024-02-21T06:03:47;46204.41;;;-142.53;83.54
4133;BME280;2080;51.038;7.008;2024-02-21T06:06:14;46169.78;;;-142.53;83.56
4133;BME280;2080;51.038;7.008;2024-02-21T06:08:40;46169.78;;;-142.53;83.02
4133;BME280;2080;51.038;7.008;2024-02-21T06:11:08;46119.72;;;-142.53;81.25
4133;BME280;2080;51.038;7.008;2024-02-21T06:13:38;46142.81;;;-142.53;82.09
4133;BME280;2080;51.038;7.008;2024-02-21T06:16:05;46167.84;;;-142.53;84.06
4133;BME280;2080;51.038;7.008;2024-02-21T06:18:34;46158.22;;;-142.53;85.20
4133;BME280;2080;51.038;7.008;2024-02-21T06:21:00;46127.41;;;-142.53;81.87
4133;BME280;2080;51.038;7.008;2024-02-21T06:23:26;46162.06;;;-142.53;81.26
4133;BME280;2080;51.038;7.008;2024-02-21T06:25:53;46150.53;;;-142.53;80.28
4133;BME280;2080;51.038;7.008;2024-02-21T06:28:19;46212.13;;;-142.53;80.01
4133;BME280;2080;51.038;7.008;2024-02-21T06:30:45;46127.41;;;-142.53;80.83
4133;BME280;2080;51.038;7.008;2024-02-21T06:33:11;46181.31;;;-142.53;84.13
4133;BME280;2080;51.038;7.008;2024-02-21T06:35:36;46181.31;;;-142.53;85.88
4133;BME280;2080;51.038;7.008;2024-02-21T06:38:03;46179.41;;;-142.53;83.07
4133;BME280;2080;51.038;7.008;2024-02-21T06:40:30;46135.13;;;-142.53;78.62
4133;BME280;2080;51.038;7.008;2024-02-21T06:43:03;46181.31;;;-142.53;80.76
4133;BME280;2080;51.038;7.008;2024-02-21T06:45:31;46135.13;;;-142.53;79.85
4133;BME280;2080;51.038;7.008;2024-02-21T06:47:56;46158.22;;;-142.53;82.81
4133;BME280;2080;51.038;7.008;2024-02-21T06:50:22;46185.16;;;-142.53;82.40
4133;BME280;2080;51.038;7.008;2024-02-21T06:52:47;46146.66;;;-142.53;81.49
4133;BME280;2080;51.038;7.008;2024-02-21T06:55:15;46162.06;;;-142.53;81.26
4133;BME280;2080;51.038;7.008;2024-02-21T06:57:45;46185.16;;;-142.53;85.05
4133;BME280;2080;51.038;7.008;2024-02-21T07:00:11;46165.91;;;-142.53;82.22
4133;BME280;2080;51.038;7.008;2024-02-21T07:02:39;46189.03;;;-142.53;85.02
4133;BME280;2080;51.038;7.008;2024-02-21T07:05:05;46169.78;;;-142.53;83.54
4133;BME280;2080;51.038;7.008;2024-02-21T07:07:32;46294.91;;;-142.53;85.72
4133;BME280;2080;51.038;7.008;2024-02-21T07:10:00;46140.91;;;-142.53;85.44
4133;BME280;2080;51.038;7.008;2024-02-21T07:12:28;46160.16;;;-142.53;82.80
4133;BME280;2080;51.038;7.008;2024-02-21T07:14:55;46142.81;;;-142.53;81.92
4133;BME280;2080;51.038;7.008;2024-02-21T07:17:23;46175.53;;;-142.53;83.01
4133;BME280;2080;51.038;7.008;2024-02-21T07:19:50;46192.88;;;-142.53;82.83
4133;BME280;2080;51.038;7.008;2024-02-21T07:22:16;46169.78;;;-142.53;83.20
4133;BME280;2080;51.038;7.008;2024-02-21T07:24:41;46158.22;;;-142.53;82.01
4133;BME280;2080;51.038;7.008;2024-02-21T07:27:07;46152.44;;;-142.53;80.72
4133;BME280;2080;51.038;7.008;2024-02-21T07:29:32;46154.38;;;-142.53;81.95
4133;BME280;2080;51.038;7.008;2024-02-21T07:32:01;46127.41;;;-142.53;79.67
4133;BME280;2080;51.038;7.008;2024-02-21T07:34:26;46165.91;;;-142.53;79.72
4133;BME280;2080;51.038;7.008;2024-02-21T07:36:51;46146.66;;;-142.53;79.06
4133;BME280;2080;51.038;7.008;2024-02-21T07:39:17;46123.56;;;-142.53;78.57
4133;BME280;2080;51.038;7.008;2024-02-21T07:41:42;46146.66;;;-142.53;81.03
4133;BME280;2080;51.038;7.008;2024-02-21T07:44:10;46175.53;;;-142.53;81.17
4133;BME280;2080;51.038;7.008;2024-02-21T07:46:37;46156.28;;;-142.53;79.73
4133;BME280;2080;51.038;7.008;2024-02-21T07:49:03;46110.09;;;-142.53;79.03
4133;BME280;2080;51.038;7.008;2024-02-21T07:51:28;46154.38;;;-142.53;80.90
4133;BME280;2080;51.038;7.008;2024-02-21T07:53:54;46150.53;;;-142.53;82.73
4133;BME280;2080;51.038;7.008;2024-02-21T07:56:27;46146.66;;;-142.53;81.87
4133;BME280;2080;51.038;7.008;2024-02-21T07:58:52;46142.81;;;-142.53;81.29
4133;BME280;2080;51.038;7.008;2024-02-21T08:01:20;46154.38;;;-142.53;83.74
4133;BME280;2080;51.038;7.008;2024-02-21T08:03:48;46123.56;;;-142.53;83.32
4133;BME280;2080;51.038;7.008;2024-02-21T08:06:14;46158.22;;;-142.53;82.80
4133;BME280;2080;51.038;7.008;2024-02-21T08:08:40;46094.69;;;-142.53;81.93
4133;BME280;2080;51.038;7.008;2024-02-21T08:11:05;46192.88;;;-142.53;81.90
4133;BME280;2080;51.038;7.008;2024-02-21T08:13:30;46142.81;;;-142.53;81.35
4133;BME280;2080;51.038;7.008;2024-02-21T08:15:56;46150.53;;;-142.53;81.75
4133;BME280;2080;51.038;7.008;2024-02-21T08:18:25;46162.06;;;-142.53;82.40
4133;BME280;2080;51.038;7.008;2024-02-21T08:20:52;46154.38;;;-142.53;83.04
4133;BME280;2080;51.038;7.008;2024-02-21T08:23:19;46189.03;;;-142.53;83.37
4133;BME280;2080;51.038;7.008;2024-02-21T08:25:44;46150.53;;;-142.53;81.69
4133;BME280;2080;51.038;7.008;2024-02-21T08:28:10;46162.06;;;-142.53;81.67
4133;BME280;2080;51.038;7.008;2024-02-21T08:30:35;46593.34;;;-142.53;83.94
4133;BME280;2080;51.038;7.008;2024-02-21T08:33:00;46198.66;;;-142.53;86.32
4133;BME280;2080;51.038;7.008;2024-02-21T08:35:26;46142.81;;;-142.53;82.01
4133;BME280;2080;51.038;7.008;2024-02-21T08:37:51;46146.66;;;-142.53;81.50
4133;BME280;2080;51.038;7.008;2024-02-21T08:40:17;46162.06;;;-142.53;81.69
4133;BME280;2080;51.038;7.008;2024-02-21T08:42:47;46158.22;;;-142.53;82.12
4133;BME280;2080;51.038;7.008;2024-02-21T08:45:15;46156.28;;;-142.53;83.60
4133;BME280;2080;51.038;7.008;2024-02-21T08:47:43;46169.78;;;-142.53;81.97
4133;BME280;2080;51.038;7.008;2024-02-21T08:50:09;46173.63;;;-142.53;84.22
4133;BME280;2080;51.038;7.008;2024-02-21T08:52:37;46112.00;;;-142.53;81.29
4133;BME280;2080;51.038;7.008;2024-02-21T08:55:03;46181.31;;;-142.53;83.39
4133;BME280;2080;51.038;7.008;2024-02-21T08:57:28;46160.16;;;-142.53;80.86
4133;BME280;2080;51.038;7.008;2024-02-21T08:59:54;46144.75;;;-142.53;80.92
4133;BME280;2080;51.038;7.008;2024-02-21T09:02:19;46173.63;;;-142.53;81.87
4133;BME280;2080;51.038;7.008;2024-02-21T09:04:44;46146.66;;;-142.53;80.07
4133;BME280;2080;51.038;7.008;2024-02-21T09:07:12;46123.56;;;-142.53;80.23
4133;BME280;2080;51.038;7.008;2024-02-21T09:09:38;46165.91;;;-142.53;80.25
4133;BME280;2080;51.038;7.008;2024-02-21T09:14:33;46135.13;;;-142.53;78.04
4133;BME280;2080;51.038;7.008;2024-02-21T09:16:59;46096.63;;;-142.53;78.83
4133;BME280;2080;51.038;7.008;2024-02-21T09:19:24;46138.97;;;-142.53;76.28
4133;BME280;2080;51.038;7.008;2024-02-21T09:21:57;46135.13;;;-142.53;75.16
4133;BME280;2080;51.038;7.008;2024-02-21T09:24:22;46121.66;;;-142.53;79.41
4133;BME280;2080;51.038;7.008;2024-02-21T09:26:48;46137.03;;;-142.53;74.44
4133;BME280;2080;51.038;7.008;2024-02-21T09:29:13;46142.81;;;-142.53;75.80
4133;BME280;2080;51.038;7.008;2024-02-21T09:31:41;46115.88;;;-142.53;75.91
4133;BME280;2080;51.038;7.008;2024-02-21T09:34:07;46131.28;;;-142.53;75.61
4133;BME280;2080;51.038;7.008;2024-02-21T09:36:36;46138.97;;;-142.53;75.57
4133;BME280;2080;51.038;7.008;2024-02-21T09:39:08;46104.31;;;-142.53;73.50
4133;BME280;2080;51.038;7.008;2024-02-21T09:41:36;46162.06;;;-142.53;73.30
4133;BME280;2080;51.038;7.008;2024-02-21T09:44:05;46027.31;;;-142.53;73.55
4133;BME280;2080;51.038;7.008;2024-02-21T09:51:34;46027.31;;;-142.53;70.98
4133;BME280;2080;51.038;7.008;2024-02-21T09:54:01;46117.78;;;-142.53;71.91
4133;BME280;2080;51.038;7.008;2024-02-21T09:56:28;46117.78;;;-142.53;71.71
4133;BME280;2080;51.038;7.008;2024-02-21T09:58:54;46104.31;;;-142.53;68.39
4133;BME280;2080;51.038;7.008;2024-02-21T10:01:22;46065.81;;;-142.53;66.54
4133;BME280;2080;51.038;7.008;2024-02-21T10:03:48;46096.63;;;-142.53;65.42
4133;BME280;2080;51.038;7.008;2024-02-21T10:06:15;46096.63;;;-142.53;65.22
4133;BME280;2080;51.038;7.008;2024-02-21T10:08:41;46098.53;;;-142.53;66.95
4133;BME280;2080;51.038;7.008;2024-02-21T10:11:06;46100.47;;;-142.53;66.92
4133;BME280;2080;51.038;7.008;2024-02-21T10:13:36;46110.09;;;-142.53;65.90
4133;BME280;2080;51.038;7.008;2024-02-21T10:16:07;46085.06;;;-142.53;69.13
4133;BME280;2080;51.038;7.008;2024-02-21T10:18:36;46102.38;;;-142.53;64.41
4133;BME280;2080;51.038;7.008;2024-02-21T10:23:27;46108.16;;;-142.53;64.95
4133;BME280;2080;51.038;7.008;2024-02-21T10:26:04;46065.81;;;-142.53;62.91
4133;BME280;2080;51.038;7.008;2024-02-21T10:28:30;45988.81;;;-142.53;66.28
4133;BME280;2080;51.038;7.008;2024-02-21T10:31:00;46015.75;;;-142.53;62.96
4133;BME280;2080;51.038;7.008;2024-02-21T10:33:25;46096.63;;;-142.53;64.12
4133;BME280;2080;51.038;7.008;2024-02-21T10:36:09;46088.91;;;-142.53;59.55
4133;BME280;2080;51.038;7.008;2024-02-21T10:38:38;46081.22;;;-142.53;64.49
4133;BME280;2080;51.038;7.008;2024-02-21T10:41:06;46073.50;;;-142.53;58.99
4133;BME280;2080;51.038;7.008;2024-02-21T10:43:40;46061.97;;;-142.53;56.03
4133;BME280;2080;51.038;7.008;2024-02-21T10:46:09;46087.00;;;-142.53;58.49
4133;BME280;2080;51.038;7.008;2024-02-21T10:48:47;46081.22;;;-142.53;58.45
4133;BME280;2080;51.038;7.008;2024-02-21T10:51:18;46676.13;;;-142.53;55.23
4133;BME280;2080;51.038;7.008;2024-02-21T10:58:52;46088.91;;;-142.53;58.67
4133;BME280;2080;51.038;7.008;2024-02-21T11:01:21;46069.66;;;-142.53;55.78
4133;BME280;2080;51.038;7.008;2024-02-21T11:03:51;46127.41;;;-142.53;56.02
4133;BME280;2080;51.038;7.008;2024-02-21T11:06:19;46073.50;;;-142.53;56.33
4133;BME280;2080;51.038;7.008;2024-02-21T11:08:45;46081.22;;;-142.53;56.11
4133;BME280;2080;51.038;7.008;2024-02-21T11:11:13;46094.69;;;-142.53;55.65
4133;BME280;2080;51.038;7.008;2024-02-21T11:13:46;46079.28;;;-142.53;63.15
4133;BME280;2080;51.038;7.008;2024-02-21T11:16:22;46061.97;;;-142.53;58.01
4133;BME280;2080;51.038;7.008;2024-02-21T11:18:47;46061.97;;;-142.53;57.72
4133;BME280;2080;51.038;7.008;2024-02-21T11:21:13;46081.22;;;-142.53;57.33
4133;BME280;2080;51.038;7.008;2024-02-21T11:23:41;46087.00;;;-142.53;55.21
4133;BME280;2080;51.038;7.008;2024-02-21T11:28:15;46085.06;;;-142.53;55.88
4133;BME280;2080;51.038;7.008;2024-02-21T11:30:50;46061.97;;;-142.53;52.34
4133;BME280;2080;51.038;7.008;2024-02-21T11:33:16;46077.38;;;-142.53;52.73
4133;BME280;2080;51.038;7.008;2024-02-21T11:35:42;46092.75;;;-142.53;55.38
4133;BME280;2080;51.038;7.008;2024-02-21T11:38:12;46092.75;;;-142.53;53.02
4133;BME280;2080;51.038;7.008;2024-02-21T11:40:44;45981.13;;;-142.53;57.69
4133;BME280;2080;51.038;7.008;2024-02-21T11:43:12;46106.25;;;-142.53;54.94
4133;BME280;2080;51.038;7.008;2024-02-21T11:45:37;46050.41;;;-142.53;57.21
4133;BME280;2080;51.038;7.008;2024-02-21T11:48:06;46081.22;;;-142.53;51.82
4133;BME280;2080;51.038;7.008;2024-02-21T11:50:34;46085.06;;;-142.53;52.29
4133;BME280;2080;51.038;7.008;2024-02-21T11:52:59;46069.66;;;-142.53;52.65
4133;BME280;2080;51.038;7.008;2024-02-21T11:55:25;46069.66;;;-142.53;53.10
4133;BME280;2080;51.038;7.008;2024-02-21T11:57:52;46077.38;;;-142.53;52.37
4133;BME280;2080;51.038;7.008;2024-02-21T12:00:21;46069.66;;;-142.53;53.16
4133;BME280;2080;51.038;7.008;2024-02-21T12:02:47;46058.13;;;-142.53;54.86
4133;BME280;2080;51.038;7.008;2024-02-21T12:05:13;46081.22;;;-142.53;52.95
4133;BME280;2080;51.038;7.008;2024-02-21T12:07:40;46065.81;;;-142.53;51.63
4133;BME280;2080;51.038;7.008;2024-02-21T12:10:09;46050.41;;;-142.53;51.64
4133;BME280;2080;51.038;7.008;2024-02-21T12:12:38;46063.88;;;-142.53;50.84
4133;BME280;2080;51.038;7.008;2024-02-21T12:15:04;46069.66;;;-142.53;51.49
4133;BME280;2080;51.038;7.008;2024-02-21T12:17:33;46135.13;;;-142.53;51.01
4133;BME280;2080;51.038;7.008;2024-02-21T12:19:59;46096.63;;;-142.53;50.69
4133;BME280;2080;51.038;7.008;2024-02-21T12:22:25;46088.91;;;-142.53;53.79
4133;BME280;2080;51.038;7.008;2024-02-21T12:24:50;46096.63;;;-142.53;57.67
4133;BME280;2080;51.038;7.008;2024-02-21T12:27:16;46146.66;;;-142.53;52.28
4133;BME280;2080;51.038;7.008;2024-02-21T12:29:43;46092.75;;;-142.53;52.36
4133;BME280;2080;51.038;7.008;2024-02-21T12:32:09;46085.06;;;-142.53;51.42
4133;BME280;2080;51.038;7.008;2024-02-21T12:34:37;46073.50;;;-142.53;51.02
4133;BME280;2080;51.038;7.008;2024-02-21T12:37:02;46054.25;;;-142.53;49.78
4133;BME280;2080;51.038;7.008;2024-02-21T12:39:30;46071.59;;;-142.53;51.45
4133;BME280;2080;51.038;7.008;2024-02-21T12:41:59;46069.66;;;-142.53;50.92
4133;BME280;2080;51.038;7.008;2024-02-21T12:44:24;46085.06;;;-142.53;52.26
4133;BME280;2080;51.038;7.008;2024-02-21T12:46:49;46081.22;;;-142.53;50.71
4133;BME280;2080;51.038;7.008;2024-02-21T12:49:18;46077.38;;;-142.53;50.98
4133;BME280;2080;51.038;7.008;2024-02-21T12:51:45;46100.47;;;-142.53;55.97
4133;BME280;2080;51.038;7.008;2024-02-21T12:54:13;46065.81;;;-142.53;50.37
4133;BME280;2080;51.038;7.008;2024-02-21T12:56:39;46083.13;;;-142.53;51.04
4133;BME280;2080;51.038;7.008;2024-02-21T12:59:07;46092.75;;;-142.53;50.68
4133;BME280;2080;51.038;7.008;2024-02-21T13:01:38;46031.16;;;-142.53;53.99
4133;BME280;2080;51.038;7.008;2024-02-21T13:04:03;46046.56;;;-142.53;53.27
4133;BME280;2080;51.038;7.008;2024-02-21T13:06:29;46108.16;;;-142.53;56.21
4133;BME280;2080;51.038;7.008;2024-02-21T13:08:56;46083.13;;;-142.53;54.04
4133;BME280;2080;51.038;7.008;2024-02-21T13:11:29;46094.69;;;-142.53;53.79
4133;BME280;2080;51.038;7.008;2024-02-21T13:13:57;46246.78;;;-142.53;53.05
4133;BME280;2080;51.038;7.008;2024-02-21T13:16:25;46081.22;;;-142.53;52.08
4133;BME280;2080;51.038;7.008;2024-02-21T13:18:53;46083.13;;;-142.53;52.83